Time;durP1;ratioP1;P1;durP2;ratioP2;P2;SDS_P1;SDS_P2;PMS_P1;PMS_P2;Temp;Humidity;BMP_temperature;BMP_pressure;BME280_temperature;BME280_humidity;BME280_pressure;Samples;Min_cycle;Max_cycle;Signal;HPM_P1;HPM_P2
2022/03/28 00:01:49;;;;;;;10.40;10.10;;;8.70;99.90;;;;;;6349597;22;20310;-79
2022/03/28 00:04:18;;;;;;;10.30;10.00;;;8.70;99.90;;;;;;6349163;22;20214;-80
2022/03/28 00:06:46;;;;;;;10.30;10.00;;;8.60;99.90;;;;;;6349334;22;20200;-80
2022/03/28 00:09:14;;;;;;;10.60;10.30;;;8.60;99.90;;;;;;6348689;22;20197;-80
2022/03/28 00:11:42;;;;;;;10.80;10.50;;;8.60;99.90;;;;;;6349062;22;20223;-79
2022/03/28 00:14:10;;;;;;;10.90;10.60;;;8.50;99.90;;;;;;6348838;22;20208;-79
2022/03/28 00:16:38;;;;;;;10.60;10.30;;;8.50;99.90;;;;;;6348770;22;20261;-80
2022/03/28 00:19:06;;;;;;;10.53;10.23;;;8.40;99.90;;;;;;6348543;22;20246;-80
2022/03/28 00:21:35;;;;;;;10.80;10.50;;;8.40;99.90;;;;;;6348579;22;20257;-80
2022/03/28 00:24:03;;;;;;;10.60;10.30;;;8.30;99.90;;;;;;6348146;22;20200;-80
2022/03/28 00:26:31;;;;;;;10.43;10.13;;;8.20;99.90;;;;;;6348648;22;20197;-80
2022/03/28 00:28:59;;;;;;;10.60;10.30;;;8.20;99.90;;;;;;6348363;22;20215;-80
2022/03/28 00:31:27;;;;;;;10.47;10.17;;;8.10;99.90;;;;;;6348267;22;20192;-80
2022/03/28 00:33:54;;;;;;;10.70;10.40;;;8.00;99.90;;;;;;6348282;22;20313;-80
2022/03/28 00:36:22;;;;;;;10.60;10.30;;;8.00;99.90;;;;;;6341759;22;20252;-85
2022/03/28 00:38:51;;;;;;;10.60;10.30;;;8.00;99.90;;;;;;6353394;22;20200;-82
2022/03/28 00:41:19;;;;;;;10.73;10.43;;;7.90;99.90;;;;;;6353449;22;20704;-83
2022/03/28 00:43:56;;;;;;;10.60;10.30;;;7.90;99.90;;;;;;6354284;22;20184;-83
2022/03/28 00:46:24;;;;;;;10.83;10.53;;;7.80;99.90;;;;;;6356976;22;20200;-83
2022/03/28 00:48:53;;;;;;;10.60;10.30;;;7.80;99.90;;;;;;6354188;22;20222;-83
2022/03/28 00:51:23;;;;;;;10.73;10.43;;;7.70;99.90;;;;;;6357176;22;20192;-82
2022/03/28 00:53:53;;;;;;;10.70;10.40;;;7.70;99.90;;;;;;6354191;22;20230;-82
2022/03/28 00:56:21;;;;;;;10.77;10.47;;;7.70;99.90;;;;;;6353416;22;20200;-83
2022/03/28 00:58:49;;;;;;;10.73;10.43;;;7.70;99.90;;;;;;6354959;22;20203;-82
2022/03/28 01:01:17;;;;;;;10.73;10.43;;;7.70;99.90;;;;;;6355095;22;20226;-82
2022/03/28 01:03:45;;;;;;;10.80;10.50;;;7.70;99.90;;;;;;6353749;22;20200;-82
2022/03/28 01:06:13;;;;;;;10.90;10.60;;;7.70;99.90;;;;;;6354251;22;20993;-82
2022/03/28 01:08:41;;;;;;;10.60;10.30;;;7.60;99.90;;;;;;6354490;22;20197;-81
2022/03/28 01:11:11;;;;;;;10.80;10.50;;;7.60;99.90;;;;;;6355510;22;20250;-85
2022/03/28 01:13:41;;;;;;;10.80;10.50;;;7.60;99.90;;;;;;6354467;22;20195;-83
2022/03/28 01:16:10;;;;;;;10.80;10.50;;;7.60;99.90;;;;;;6354332;22;20286;-83
2022/03/28 01:18:48;;;;;;;10.80;10.50;;;7.50;99.90;;;;;;6353809;22;20222;-83
2022/03/28 01:21:18;;;;;;;10.70;10.40;;;7.50;99.90;;;;;;6353293;22;20188;-83
2022/03/28 01:23:56;;;;;;;10.60;10.30;;;7.40;99.90;;;;;;6352188;22;20192;-82
2022/03/28 01:26:24;;;;;;;10.30;10.00;;;7.30;99.90;;;;;;6352270;22;20305;-84
2022/03/28 01:28:51;;;;;;;10.50;10.20;;;7.30;99.90;;;;;;6351869;22;20212;-83
2022/03/28 01:31:22;;;;;;;10.50;10.20;;;7.30;99.90;;;;;;6350963;22;20204;-82
2022/03/28 01:33:51;;;;;;;10.37;10.07;;;7.30;99.90;;;;;;6351053;22;20190;-82
2022/03/28 01:36:25;;;;;;;10.43;10.13;;;7.30;99.90;;;;;;6351815;22;20211;-83
2022/03/28 01:38:53;;;;;;;10.60;10.30;;;7.20;99.90;;;;;;6351643;22;20199;-83
2022/03/28 01:41:23;;;;;;;10.53;10.23;;;7.20;99.90;;;;;;6351828;22;20200;-83
2022/03/28 01:43:51;;;;;;;10.70;10.40;;;7.20;99.90;;;;;;6352050;22;20200;-84
2022/03/28 01:46:54;;;;;;;10.60;10.30;;;7.10;99.90;;;;;;6352994;22;20204;-83
2022/03/28 01:49:22;;;;;;;10.70;10.40;;;7.00;99.90;;;;;;6353884;22;20211;-83
2022/03/28 01:51:52;;;;;;;10.40;10.10;;;7.00;99.90;;;;;;6351809;22;20277;-83
2022/03/28 01:58:22;;;;;;;10.90;10.60;;;6.90;99.90;;;;;;6267243;22;20243;-82
2022/03/28 02:00:50;;;;;;;10.80;10.50;;;6.80;99.90;;;;;;6355947;22;20196;-83
2022/03/28 02:03:18;;;;;;;10.77;10.47;;;6.80;99.90;;;;;;6354714;22;20200;-83
2022/03/28 02:05:46;;;;;;;10.67;10.37;;;6.80;99.90;;;;;;6354746;22;20249;-83
2022/03/28 02:08:15;;;;;;;10.57;10.27;;;6.70;99.90;;;;;;6353750;22;20192;-83
2022/03/28 02:10:43;;;;;;;10.50;10.20;;;6.70;99.90;;;;;;6353833;22;20355;-83
2022/03/28 02:13:11;;;;;;;10.90;10.60;;;6.70;99.90;;;;;;6353392;22;20255;-82
2022/03/28 02:15:39;;;;;;;10.73;10.43;;;6.60;99.90;;;;;;6352510;22;20196;-85
2022/03/28 02:18:07;;;;;;;10.90;10.60;;;6.50;99.90;;;;;;6353141;22;20200;-84
2022/03/28 02:20:35;;;;;;;10.70;10.40;;;6.50;99.90;;;;;;6352377;22;20204;-84
2022/03/28 02:23:02;;;;;;;10.90;10.60;;;6.50;99.90;;;;;;6350530;22;20199;-83
2022/03/28 02:25:35;;;;;;;10.70;10.40;;;6.50;99.90;;;;;;6351595;22;20200;-84
2022/03/28 02:28:03;;;;;;;10.83;10.53;;;6.50;99.90;;;;;;6351943;22;20219;-85
2022/03/28 02:30:31;;;;;;;10.70;10.40;;;6.50;99.90;;;;;;6352649;22;20238;-84
2022/03/28 02:32:59;;;;;;;10.53;10.23;;;6.40;99.90;;;;;;6351389;22;20211;-84
2022/03/28 02:35:27;;;;;;;10.67;10.37;;;6.40;99.90;;;;;;6351286;22;20208;-84
2022/03/28 02:37:57;;;;;;;10.67;10.37;;;6.40;99.90;;;;;;6351721;22;20200;-84
2022/03/28 02:40:25;;;;;;;10.47;10.17;;;6.40;99.90;;;;;;6352189;22;20196;-84
2022/03/28 02:42:55;;;;;;;10.80;10.50;;;6.40;99.90;;;;;;6352947;22;20200;-84
2022/03/28 02:45:23;;;;;;;10.70;10.40;;;6.30;99.90;;;;;;6354317;22;20184;-84
2022/03/28 02:47:51;;;;;;;10.97;10.67;;;6.30;99.90;;;;;;6353828;22;20196;-82
2022/03/28 02:50:18;;;;;;;10.70;10.40;;;6.30;99.90;;;;;;6353327;22;20202;-84
2022/03/28 02:52:46;;;;;;;10.73;10.43;;;6.30;99.90;;;;;;6352536;22;20203;-84
2022/03/28 02:55:15;;;;;;;10.73;10.43;;;6.20;99.90;;;;;;6352168;22;20195;-84
2022/03/28 02:57:43;;;;;;;10.90;10.60;;;6.20;99.90;;;;;;6353119;22;20216;-84
2022/03/28 03:00:13;;;;;;;11.10;10.80;;;6.00;99.90;;;;;;6352079;22;20196;-84
2022/03/28 03:02:45;;;;;;;11.00;10.70;;;6.00;99.90;;;;;;6353099;22;20263;-84
2022/03/28 03:05:13;;;;;;;10.83;10.53;;;6.00;99.90;;;;;;6352811;22;20187;-84
2022/03/28 03:07:41;;;;;;;10.97;10.67;;;6.00;99.90;;;;;;6353309;22;20250;-82
2022/03/28 03:10:10;;;;;;;10.90;10.60;;;6.00;99.90;;;;;;6353722;22;20203;-83
2022/03/28 03:12:38;;;;;;;10.80;10.50;;;6.00;99.90;;;;;;6353183;22;20192;-84
2022/03/28 03:15:07;;;;;;;11.00;10.70;;;5.90;99.90;;;;;;6356352;22;20191;-84
2022/03/28 03:17:36;;;;;;;10.90;10.60;;;5.90;99.90;;;;;;6373294;22;20222;-83
2022/03/28 03:20:05;;;;;;;11.00;10.70;;;5.80;99.90;;;;;;6373527;22;20187;-83
2022/03/28 03:22:33;;;;;;;10.90;10.60;;;5.80;99.90;;;;;;6359459;22;20196;-84
2022/03/28 03:25:01;;;;;;;10.90;10.60;;;5.80;99.90;;;;;;6355525;22;20214;-84
2022/03/28 03:27:29;;;;;;;11.00;10.70;;;5.80;99.90;;;;;;6356768;22;20207;-83
2022/03/28 03:29:56;;;;;;;11.00;10.70;;;5.70;99.90;;;;;;6355073;22;20277;-84
2022/03/28 03:32:24;;;;;;;10.90;10.60;;;5.70;99.90;;;;;;6354484;22;20204;-84
2022/03/28 03:34:55;;;;;;;11.00;10.70;;;5.70;99.90;;;;;;6354832;22;20196;-84
2022/03/28 03:37:22;;;;;;;10.87;10.57;;;5.70;99.90;;;;;;6354769;22;20286;-84
2022/03/28 03:39:50;;;;;;;10.90;10.60;;;5.60;99.90;;;;;;6353876;22;20188;-84
2022/03/28 03:42:18;;;;;;;10.83;10.53;;;5.60;99.90;;;;;;6353584;22;20185;-83
2022/03/28 03:44:46;;;;;;;10.90;10.60;;;5.50;99.90;;;;;;6354088;22;20236;-83
2022/03/28 03:47:14;;;;;;;10.70;10.40;;;5.50;99.90;;;;;;6353958;22;20252;-83
2022/03/28 03:49:42;;;;;;;10.90;10.60;;;5.50;99.90;;;;;;6354077;22;20211;-84
2022/03/28 03:52:13;;;;;;;10.70;10.40;;;5.50;99.90;;;;;;6353196;22;20203;-83
2022/03/28 03:54:41;;;;;;;10.77;10.47;;;5.50;99.90;;;;;;6354102;22;20214;-84
2022/03/28 03:57:09;;;;;;;10.90;10.60;;;5.50;99.90;;;;;;6354218;22;20196;-84
2022/03/28 03:59:37;;;;;;;10.93;10.63;;;5.40;99.90;;;;;;6353409;22;20203;-84
2022/03/28 04:02:06;;;;;;;10.87;10.57;;;5.40;99.90;;;;;;6353466;22;20292;-83
2022/03/28 04:04:33;;;;;;;10.90;10.60;;;5.40;99.90;;;;;;6358800;22;20219;-83
2022/03/28 04:07:01;;;;;;;11.00;10.70;;;5.40;99.90;;;;;;6355591;22;20204;-84
2022/03/28 04:09:31;;;;;;;11.30;10.90;;;5.30;99.90;;;;;;6354481;22;20200;-84
2022/03/28 04:11:58;;;;;;;10.83;10.53;;;5.30;99.90;;;;;;6356261;22;20202;-83
2022/03/28 04:14:26;;;;;;;11.30;10.90;;;5.20;99.90;;;;;;6373468;22;20245;-82
2022/03/28 04:16:54;;;;;;;11.50;11.10;;;5.20;99.90;;;;;;6358851;22;20230;-83
2022/03/28 04:19:21;;;;;;;11.10;10.80;;;5.20;99.90;;;;;;6355350;22;20196;-84
2022/03/28 04:21:49;;;;;;;11.27;10.87;;;5.20;99.90;;;;;;6353462;22;20208;-83
2022/03/28 04:24:17;;;;;;;11.30;10.90;;;5.20;99.90;;;;;;6352931;22;20203;-83
2022/03/28 04:26:46;;;;;;;11.37;10.97;;;5.20;99.90;;;;;;6353898;22;20197;-84
2022/03/28 04:29:14;;;;;;;11.40;11.00;;;5.10;99.90;;;;;;6353636;22;20253;-84
2022/03/28 04:31:42;;;;;;;11.07;10.77;;;5.10;99.90;;;;;;6353814;22;20692;-84
2022/03/28 04:34:10;;;;;;;10.93;10.63;;;5.10;99.90;;;;;;6353349;22;20200;-83
2022/03/28 04:36:38;;;;;;;11.00;10.70;;;5.20;99.90;;;;;;6353228;22;20266;-84
2022/03/28 04:39:07;;;;;;;11.00;10.70;;;5.20;99.90;;;;;;6354322;22;20195;-84
2022/03/28 04:41:34;;;;;;;11.40;11.00;;;5.20;99.90;;;;;;6354868;22;20210;-83
2022/03/28 04:44:04;;;;;;;11.27;10.87;;;5.20;99.90;;;;;;6354195;22;20203;-83
2022/03/28 04:46:32;;;;;;;11.30;10.90;;;5.10;99.90;;;;;;6355534;22;20196;-83
2022/03/28 04:49:00;;;;;;;11.50;11.10;;;5.00;99.90;;;;;;6353707;22;20250;-84
2022/03/28 04:51:28;;;;;;;11.40;11.00;;;5.00;99.90;;;;;;6353324;22;20204;-84
2022/03/28 04:53:58;;;;;;;11.50;11.10;;;5.00;99.90;;;;;;6353989;22;20207;-83
2022/03/28 04:56:26;;;;;;;11.90;11.50;;;5.00;99.90;;;;;;6354348;22;20203;-84
2022/03/28 04:58:54;;;;;;;11.40;11.00;;;5.00;99.90;;;;;;6355277;22;20192;-84
2022/03/28 05:01:23;;;;;;;11.77;11.37;;;5.00;99.90;;;;;;6356028;22;21004;-83
2022/03/28 05:03:51;;;;;;;11.33;10.93;;;5.00;99.90;;;;;;6354956;22;20287;-83
2022/03/28 05:06:19;;;;;;;11.40;11.00;;;5.00;99.90;;;;;;6354940;22;20200;-84
2022/03/28 05:08:46;;;;;;;11.30;10.90;;;4.90;99.90;;;;;;6355621;22;20215;-84
2022/03/28 05:11:14;;;;;;;11.00;10.60;;;4.90;99.90;;;;;;6355742;22;20204;-84
2022/03/28 05:13:42;;;;;;;11.60;11.20;;;4.80;99.90;;;;;;6355088;22;20200;-83
2022/03/28 05:16:10;;;;;;;11.70;11.30;;;4.80;99.90;;;;;;6354396;22;20201;-83
2022/03/28 05:18:39;;;;;;;11.50;11.10;;;4.80;99.90;;;;;;6354604;22;20192;-83
2022/03/28 05:21:07;;;;;;;11.43;11.03;;;4.70;99.90;;;;;;6353833;22;20203;-83
2022/03/28 05:23:34;;;;;;;11.40;11.00;;;4.80;99.90;;;;;;6352481;22;20203;-84
2022/03/28 05:26:03;;;;;;;11.50;11.10;;;4.70;99.90;;;;;;6354302;22;20202;-84
2022/03/28 05:28:31;;;;;;;11.63;11.23;;;4.70;99.90;;;;;;6354493;22;20200;-83
2022/03/28 05:30:59;;;;;;;11.37;10.97;;;4.80;99.90;;;;;;6353639;22;20196;-84
2022/03/28 05:33:27;;;;;;;11.33;10.93;;;4.80;99.90;;;;;;6355531;22;20196;-84
2022/03/28 05:35:58;;;;;;;11.57;11.17;;;4.70;99.90;;;;;;6358653;22;20199;-84
2022/03/28 05:38:26;;;;;;;11.60;11.20;;;4.80;99.90;;;;;;6360110;22;20188;-83
2022/03/28 05:40:56;;;;;;;11.73;11.33;;;4.80;99.90;;;;;;6356004;22;20250;-83
2022/03/28 05:43:25;;;;;;;11.50;11.10;;;4.80;99.90;;;;;;6353878;22;20211;-84
2022/03/28 05:45:53;;;;;;;11.33;10.93;;;4.80;99.90;;;;;;6354054;22;20226;-84
2022/03/28 05:48:22;;;;;;;11.57;11.17;;;4.80;99.90;;;;;;6353902;22;20283;-84
2022/03/28 05:50:50;;;;;;;11.70;11.30;;;4.90;99.90;;;;;;6354930;22;20274;-84
2022/03/28 05:53:20;;;;;;;11.40;11.00;;;4.90;99.90;;;;;;6360922;22;20181;-84
2022/03/28 05:55:48;;;;;;;11.60;11.20;;;4.90;99.90;;;;;;6356014;22;20214;-85
2022/03/28 05:58:16;;;;;;;11.57;11.17;;;4.90;99.90;;;;;;6354231;22;20219;-84
2022/03/28 06:00:44;;;;;;;11.80;11.40;;;5.00;99.90;;;;;;6354765;22;20196;-84
2022/03/28 06:03:12;;;;;;;11.63;11.23;;;5.00;99.90;;;;;;6365988;22;20184;-83
2022/03/28 06:05:40;;;;;;;11.60;11.20;;;5.00;99.90;;;;;;6371985;22;20192;-83
2022/03/28 06:08:10;;;;;;;11.80;11.40;;;5.10;99.90;;;;;;6353717;22;20712;-84
2022/03/28 06:10:40;;;;;;;11.53;11.13;;;5.10;99.90;;;;;;6352149;22;20196;-83
2022/03/28 06:13:08;;;;;;;11.90;11.50;;;5.20;99.90;;;;;;6351304;22;20196;-83
2022/03/28 06:15:37;;;;;;;11.90;11.50;;;5.20;99.90;;;;;;6350940;22;20202;-83
2022/03/28 06:18:06;;;;;;;11.70;11.30;;;5.30;99.90;;;;;;6349861;22;20245;-84
2022/03/28 06:20:37;;;;;;;12.00;11.60;;;5.40;99.90;;;;;;6349941;22;20192;-84
2022/03/28 06:23:05;;;;;;;11.83;11.43;;;5.50;99.90;;;;;;6351364;22;20257;-84
2022/03/28 06:25:33;;;;;;;11.70;11.30;;;5.60;99.90;;;;;;6352727;22;20248;-84
2022/03/28 06:28:03;;;;;;;11.67;11.27;;;5.70;99.90;;;;;;6353506;22;20192;-83
2022/03/28 06:30:31;;;;;;;11.50;11.10;;;5.80;99.90;;;;;;6361939;22;20203;-82
2022/03/28 06:32:58;;;;;;;11.67;11.27;;;5.90;99.90;;;;;;6369569;22;20214;-84
2022/03/28 06:35:26;;;;;;;11.23;10.87;;;5.90;99.90;;;;;;6357074;22;20200;-84
2022/03/28 06:37:55;;;;;;;11.53;11.13;;;6.10;99.90;;;;;;6347208;22;20233;-89
2022/03/28 06:40:27;;;;;;;11.07;10.77;;;6.10;99.90;;;;;;6350837;22;20192;-89
2022/03/28 06:42:57;;;;;;;11.43;11.03;;;6.20;99.90;;;;;;6349736;22;20208;-89
2022/03/28 06:45:27;;;;;;;11.40;11.00;;;6.30;99.90;;;;;;6349065;22;20195;-89
2022/03/28 06:47:56;;;;;;;11.50;11.10;;;6.40;99.90;;;;;;6349184;22;20204;-89
2022/03/28 06:50:26;;;;;;;11.50;11.10;;;6.50;99.90;;;;;;6348502;22;20203;-89
2022/03/28 06:52:55;;;;;;;11.50;11.10;;;6.60;99.90;;;;;;6347867;22;20223;-88
2022/03/28 06:55:26;;;;;;;11.47;11.07;;;6.60;99.90;;;;;;6348036;22;20196;-88
2022/03/28 06:57:57;;;;;;;11.03;10.73;;;6.70;99.90;;;;;;6348678;22;20207;-88
2022/03/28 07:00:27;;;;;;;11.30;10.97;;;6.90;99.90;;;;;;6348024;22;20223;-88
2022/03/28 07:03:02;;;;;;;11.43;11.03;;;7.00;99.90;;;;;;6347848;22;20283;-88
2022/03/28 07:05:34;;;;;;;11.30;11.00;;;7.10;99.90;;;;;;6348515;22;20184;-88
2022/03/28 07:08:16;;;;;;;11.03;10.73;;;7.20;99.90;;;;;;6350960;22;20197;-88
2022/03/28 07:10:46;;;;;;;11.00;10.70;;;7.30;99.90;;;;;;6351295;22;20256;-88
2022/03/28 07:13:15;;;;;;;11.27;10.97;;;7.50;99.90;;;;;;6357431;22;20206;-88
2022/03/28 07:15:57;;;;;;;11.07;10.77;;;7.60;99.90;;;;;;6355911;22;20203;-89
2022/03/28 07:18:25;;;;;;;10.93;10.63;;;7.70;99.90;;;;;;6350932;22;20216;-89
2022/03/28 07:21:46;;;;;;;10.80;10.50;;;7.90;99.90;;;;;;6349334;22;20196;-89
2022/03/28 07:24:17;;;;;;;10.80;10.50;;;8.10;99.90;;;;;;6338212;22;20287;-87
2022/03/28 07:27:14;;;;;;;10.60;10.30;;;8.30;99.90;;;;;;6348947;22;20193;-88
2022/03/28 07:29:44;;;;;;;10.80;10.50;;;8.40;99.90;;;;;;6348765;22;20200;-89
2022/03/28 07:32:20;;;;;;;10.50;10.20;;;8.60;99.90;;;;;;6348787;22;20269;-89
2022/03/28 07:35:11;;;;;;;10.10;9.80;;;8.80;99.90;;;;;;6348984;22;20231;-88
2022/03/28 07:38:08;;;;;;;10.10;9.80;;;9.00;99.90;;;;;;6348391;22;20200;-88
2022/03/28 07:40:43;;;;;;;9.97;9.67;;;9.20;99.90;;;;;;6347872;22;20196;-89
2022/03/28 07:43:19;;;;;;;10.27;9.97;;;9.30;99.90;;;;;;6347751;22;20291;-88
2022/03/28 07:46:00;;;;;;;10.47;10.17;;;9.50;99.90;;;;;;6348275;22;20226;-88
2022/03/28 07:48:37;;;;;;;9.97;9.67;;;9.70;99.90;;;;;;6349535;22;20219;-89
2022/03/28 07:51:16;;;;;;;9.80;9.50;;;9.90;99.90;;;;;;6351994;22;20673;-89
2022/03/28 07:53:52;;;;;;;10.30;10.00;;;10.10;99.90;;;;;;6351428;22;20196;-89
2022/03/28 07:56:51;;;;;;;10.47;10.17;;;10.30;99.90;;;;;;6351063;22;20211;-88
2022/03/28 07:59:40;;;;;;;10.37;10.07;;;10.50;99.90;;;;;;6350254;22;20199;-89
2022/03/28 08:02:24;;;;;;;10.40;10.10;;;10.70;99.90;;;;;;6351065;22;20268;-89
2022/03/28 08:05:02;;;;;;;10.00;9.70;;;10.90;99.90;;;;;;6350769;22;20196;-88
2022/03/28 08:07:36;;;;;;;10.40;10.10;;;11.00;99.90;;;;;;6351113;22;20188;-89
2022/03/28 08:10:14;;;;;;;10.37;10.07;;;11.20;99.90;;;;;;6352476;22;20200;-90
2022/03/28 08:12:47;;;;;;;10.40;10.10;;;11.40;99.90;;;;;;6354940;22;20176;-89
2022/03/28 08:15:30;;;;;;;10.17;9.87;;;11.60;99.90;;;;;;6374032;22;20195;-90
2022/03/28 08:18:03;;;;;;;10.43;10.13;;;11.80;99.90;;;;;;6373911;22;20227;-90
2022/03/28 08:20:43;;;;;;;10.40;10.10;;;12.00;99.90;;;;;;6373849;22;20191;-89
2022/03/28 08:23:15;;;;;;;10.67;10.37;;;12.10;99.90;;;;;;6372221;22;20192;-90
2022/03/28 08:25:44;;;;;;;10.87;10.57;;;12.20;99.90;;;;;;6371141;22;20189;-89
2022/03/28 08:28:21;;;;;;;10.63;10.33;;;12.30;99.90;;;;;;6365088;22;20239;-89
2022/03/28 08:30:52;;;;;;;10.77;10.47;;;12.40;99.90;;;;;;6352885;22;20188;-89
2022/03/28 08:33:27;;;;;;;10.57;10.27;;;12.50;99.90;;;;;;6349778;22;20196;-89
2022/03/28 08:36:13;;;;;;;10.77;10.47;;;12.70;99.90;;;;;;6350547;22;20257;-89
2022/03/28 08:41:35;;;;;;;10.73;10.43;;;13.10;99.90;;;;;;6347036;22;20218;-89
2022/03/28 08:44:06;;;;;;;10.80;10.50;;;13.30;99.90;;;;;;6349300;22;20184;-89
2022/03/28 08:46:58;;;;;;;10.77;10.47;;;13.50;99.90;;;;;;6349007;22;20523;-89
2022/03/28 08:49:42;;;;;;;10.97;10.67;;;13.70;99.90;;;;;;6348621;22;20204;-90
2022/03/28 08:52:21;;;;;;;10.90;10.60;;;13.90;99.90;;;;;;6348772;22;20196;-89
2022/03/28 08:55:14;;;;;;;11.03;10.73;;;14.10;99.90;;;;;;6349467;22;20249;-89
2022/03/28 08:57:47;;;;;;;11.03;10.73;;;14.30;99.90;;;;;;6350542;22;20232;-89
2022/03/28 09:00:21;;;;;;;10.90;10.60;;;14.60;99.90;;;;;;6362779;22;20240;-90
2022/03/28 09:03:11;;;;;;;10.60;10.30;;;14.90;99.90;;;;;;6371803;22;20180;-89
2022/03/28 09:05:49;;;;;;;10.77;10.48;;;15.10;99.90;;;;;;6373378;22;20183;-89
2022/03/28 09:08:55;;;;;;;10.43;10.13;;;15.20;99.90;;;;;;6373331;22;20236;-89
2022/03/28 09:11:46;;;;;;;10.65;10.35;;;15.60;99.90;;;;;;6373513;22;20207;-89
2022/03/28 09:14:37;;;;;;;10.30;10.00;;;16.00;99.90;;;;;;6373805;22;20244;-89
2022/03/28 09:17:30;;;;;;;10.40;10.10;;;16.40;99.90;;;;;;6373458;22;20211;-89
2022/03/28 09:20:22;;;;;;;10.73;10.43;;;16.70;99.90;;;;;;6372984;22;20207;-89
2022/03/28 09:26:08;;;;;;;10.32;10.02;;;17.10;99.90;;;;;;6349259;22;20274;-89
2022/03/28 09:29:06;;;;;;;10.65;10.35;;;17.40;99.90;;;;;;6352051;22;20192;-89
2022/03/28 09:31:54;;;;;;;10.52;10.23;;;17.70;99.90;;;;;;6350015;22;20204;-90
2022/03/28 09:38:18;;;;;;;11.35;11.00;;;18.60;99.90;;;;;;6343686;22;20222;-89
2022/03/28 09:40:58;;;;;;;11.30;10.95;;;18.70;99.90;;;;;;6356572;22;20196;-89
2022/03/28 09:43:55;;;;;;;10.55;10.25;;;18.90;99.90;;;;;;6353564;22;20212;-89
2022/03/28 09:50:19;;;;;;;10.50;10.20;;;19.80;99.90;;;;;;6367853;22;20192;-88
2022/03/28 09:53:00;;;;;;;10.70;10.40;;;20.00;99.90;;;;;;6328400;22;20200;-88
2022/03/28 09:56:17;;;;;;;10.73;10.43;;;20.00;99.90;;;;;;6372794;22;20196;-89
2022/03/28 09:59:07;;;;;;;11.00;10.70;;;20.20;99.90;;;;;;6372583;22;20191;-89
2022/03/28 10:02:47;;;;;;;11.00;10.70;;;20.60;99.90;;;;;;6369518;22;20196;-89
2022/03/28 10:05:30;;;;;;;11.07;10.77;;;20.80;99.90;;;;;;6365618;22;20200;-89
2022/03/28 10:08:15;;;;;;;10.85;10.55;;;20.70;99.90;;;;;;6359553;22;20265;-89
2022/03/28 10:14:19;;;;;;;11.02;10.73;;;21.30;99.90;;;;;;6360695;22;20200;-88
2022/03/28 10:17:06;;;;;;;11.10;10.80;;;21.60;99.90;;;;;;6352580;22;20204;-89
2022/03/28 10:23:06;;;;;;;11.05;10.75;;;22.00;99.90;;;;;;6347921;22;20208;-88
2022/03/28 10:26:14;;;;;;;10.98;10.68;;;21.80;99.90;;;;;;6349707;22;20192;-88
2022/03/28 10:29:47;;;;;;;10.98;10.68;;;22.10;99.90;;;;;;6350645;22;20204;-89
2022/03/28 10:32:53;;;;;;;11.05;10.75;;;22.20;99.90;;;;;;6347909;22;20199;-88
2022/03/28 10:35:56;;;;;;;;;;;;;;;;;;;;;
2022/03/28 10:45:39;;;;;;;10.70;10.40;;;20.90;99.90;;;;;;6344421;22;20222;-88
2022/03/28 10:48:48;;;;;;;10.65;10.35;;;21.50;99.90;;;;;;6341608;22;20255;-89
2022/03/28 10:51:52;;;;;;;10.90;10.60;;;22.10;99.90;;;;;;6350211;22;20204;-89
2022/03/28 10:58:16;;;;;;;11.10;10.80;;;22.30;99.90;;;;;;6348967;22;20204;-89
2022/03/28 11:05:14;;;;;;;;;;;;;;;;;;;;;
2022/03/28 11:08:04;;;;;;;11.20;10.90;;;22.50;99.90;;;;;;6350301;22;20261;-89
2022/03/28 11:11:36;;;;;;;;;;;;;;;;;;;;;
2022/03/28 11:17:40;;;;;;;11.20;10.90;;;22.80;95.30;;;;;;6306948;22;20230;-88
2022/03/28 11:20:30;;;;;;;10.80;10.50;;;23.10;93.80;;;;;;6350049;22;20196;-88
2022/03/28 11:26:31;;;;;;;10.90;10.60;;;23.80;93.00;;;;;;6342076;22;20204;-88
2022/03/28 11:29:19;;;;;;;10.75;10.45;;;24.10;92.30;;;;;;6352018;22;20198;-88
2022/03/28 11:31:59;;;;;;;10.77;10.48;;;23.70;91.90;;;;;;6352216;22;20211;-89
2022/03/28 11:34:33;;;;;;;11.07;10.77;;;23.50;91.10;;;;;;6351295;22;20282;-88
2022/03/28 11:40:30;;;;;;;11.10;10.80;;;23.40;92.40;;;;;;6365194;22;20226;-89
2022/03/28 12:04:40;;;;;;;10.95;10.65;;;25.40;86.30;;;;;;6135638;23;20329;-88
2022/03/28 12:11:18;;;;;;;11.18;10.88;;;24.70;83.50;;;;;;6188850;23;20205;-88
2022/03/28 12:14:14;;;;;;;11.27;10.98;;;24.70;83.40;;;;;;6204282;23;20214;-88
2022/03/28 12:17:05;;;;;;;11.18;10.88;;;24.40;83.00;;;;;;6205392;23;20195;-89
2022/03/28 12:19:48;;;;;;;11.48;11.13;;;24.40;83.90;;;;;;6205768;23;20195;-88
2022/03/28 12:22:33;;;;;;;;;;;;;;;;;;;;;
2022/03/28 12:25:11;;;;;;;11.23;10.93;;;24.40;81.70;;;;;;6206735;23;20282;-89
2022/03/28 12:27:56;;;;;;;11.27;10.98;;;24.40;82.40;;;;;;6222852;23;20226;-88
2022/03/28 12:30:58;;;;;;;11.10;10.80;;;24.40;81.30;;;;;;6223655;23;20187;-88
2022/03/28 12:33:35;;;;;;;11.25;10.95;;;24.50;80.70;;;;;;6224434;22;20217;-88
2022/03/28 12:36:21;;;;;;;11.05;10.75;;;25.00;79.70;;;;;;6222985;23;20197;-88
2022/03/28 12:39:02;;;;;;;11.10;10.80;;;25.00;78.70;;;;;;6252603;22;20244;-81
2022/03/28 12:41:29;;;;;;;10.93;10.63;;;25.40;79.50;;;;;;6266534;22;20221;-81
2022/03/28 12:43:57;;;;;;;11.02;10.73;;;25.30;78.40;;;;;;6266212;22;20212;-81
2022/03/28 12:46:27;;;;;;;10.98;10.68;;;25.10;76.50;;;;;;6266585;22;20205;-81
2022/03/28 12:48:57;;;;;;;10.82;10.52;;;25.00;77.10;;;;;;6266659;22;20202;-81
2022/03/28 12:51:27;;;;;;;10.55;10.25;;;24.60;76.10;;;;;;6268724;22;20190;-81
2022/03/28 12:54:03;;;;;;;10.80;10.50;;;24.80;77.70;;;;;;6272283;22;20194;-81
2022/03/28 12:56:31;;;;;;;10.75;10.45;;;25.00;77.20;;;;;;6269288;22;20214;-81
2022/03/28 12:59:02;;;;;;;10.82;10.52;;;25.20;76.50;;;;;;6271970;22;20213;-81
2022/03/28 13:01:33;;;;;;;10.90;10.60;;;25.40;77.10;;;;;;6269956;22;20278;-78
2022/03/28 13:04:16;;;;;;;10.75;10.45;;;25.40;73.40;;;;;;6255458;22;20201;-80
2022/03/28 13:06:46;;;;;;;11.20;10.90;;;25.10;72.00;;;;;;6256264;22;20285;-80
2022/03/28 13:09:17;;;;;;;11.05;10.75;;;24.70;72.60;;;;;;6256488;22;20190;-79
2022/03/28 13:11:46;;;;;;;11.20;10.90;;;24.80;72.70;;;;;;6256895;22;20221;-80
2022/03/28 13:14:26;;;;;;;10.82;10.52;;;25.20;72.20;;;;;;6256517;22;20261;-79
2022/03/28 13:17:08;;;;;;;11.00;10.70;;;25.40;72.00;;;;;;6259840;22;20198;-79
2022/03/28 13:19:38;;;;;;;10.82;10.52;;;25.90;71.80;;;;;;6264039;22;20242;-80
2022/03/28 13:22:07;;;;;;;10.73;10.43;;;26.10;71.40;;;;;;6259372;22;20249;-79
2022/03/28 13:24:37;;;;;;;10.60;10.30;;;25.90;70.30;;;;;;6256595;22;20190;-79
2022/03/28 13:29:55;;;;;;;11.15;10.85;;;25.30;70.50;;;;;;6259055;22;20523;-80
2022/03/28 13:32:23;;;;;;;11.13;10.82;;;25.20;69.50;;;;;;6258510;22;20198;-80
2022/03/28 13:34:52;;;;;;;11.23;10.93;;;25.20;70.30;;;;;;6257318;22;20202;-80
2022/03/28 13:37:24;;;;;;;11.32;11.02;;;25.10;71.40;;;;;;6260297;22;20210;-79
2022/03/28 13:39:52;;;;;;;11.23;10.93;;;25.00;70.70;;;;;;6256055;22;20198;-79
2022/03/28 13:42:20;;;;;;;11.20;10.90;;;24.60;70.60;;;;;;6257702;22;20244;-80
2022/03/28 13:44:47;;;;;;;11.30;11.00;;;24.40;71.70;;;;;;6258277;22;20225;-80
2022/03/28 13:47:15;;;;;;;11.50;11.10;;;24.50;71.20;;;;;;6257935;22;20213;-80
2022/03/28 13:49:43;;;;;;;11.18;10.88;;;24.50;71.60;;;;;;6258743;22;20237;-80
2022/03/28 13:52:12;;;;;;;11.27;10.98;;;24.50;71.70;;;;;;6257536;22;20229;-80
2022/03/28 13:54:40;;;;;;;11.10;10.80;;;24.40;70.90;;;;;;6257995;22;20194;-80
2022/03/28 13:57:07;;;;;;;11.20;10.90;;;24.50;71.60;;;;;;6258908;22;20217;-79
2022/03/28 13:59:35;;;;;;;11.35;11.05;;;24.80;70.10;;;;;;6257113;22;20221;-80
2022/03/28 14:02:03;;;;;;;11.30;11.00;;;24.80;69.80;;;;;;6265714;22;20202;-80
2022/03/28 14:04:31;;;;;;;11.30;11.00;;;25.00;70.10;;;;;;6261457;22;20201;-80
2022/03/28 14:06:59;;;;;;;11.32;11.02;;;25.30;70.30;;;;;;6259044;22;20264;-79
2022/03/28 14:09:28;;;;;;;11.10;10.80;;;25.20;69.60;;;;;;6254155;22;20199;-80
2022/03/28 14:11:56;;;;;;;11.18;10.88;;;24.80;69.60;;;;;;6255070;22;20213;-80
2022/03/28 14:14:25;;;;;;;11.35;11.00;;;24.50;69.60;;;;;;6255793;22;20194;-79
2022/03/28 14:16:53;;;;;;;11.10;10.80;;;24.40;68.40;;;;;;6254613;22;20198;-79
2022/03/28 14:19:21;;;;;;;11.18;10.88;;;24.50;68.70;;;;;;6255390;22;20206;-79
2022/03/28 14:21:50;;;;;;;11.40;11.10;;;24.70;68.50;;;;;;6254925;22;20241;-79
2022/03/28 14:24:18;;;;;;;11.07;10.77;;;24.80;69.60;;;;;;6255622;22;20258;-79
2022/03/28 14:26:47;;;;;;;11.38;11.07;;;24.70;69.30;;;;;;6261998;22;20210;-79
2022/03/28 14:29:17;;;;;;;11.10;10.80;;;24.60;68.10;;;;;;6269006;22;20213;-79
2022/03/28 14:31:46;;;;;;;10.88;10.57;;;24.70;68.10;;;;;;6266865;22;20194;-80